Latest Weather Observations for Truscott

IDD60801

Issued at 3:21 pm CST Sunday 15 September 2019 (issued every 10 minutes, with the page automatically refreshed every 10 minutes)

About weather observations | Map of weather stations | Latest weather observations for NT | Other Formats
Station Details ID: 001020 Name: TRUSCOTT Lat: -14.09 Lon: 126.39 Height: 51.0 m
Data from the previous 72 hours. | See also: Recent months at Truscott
Date/Time
CST
Temp
°C
App
Temp
°C
Dew
Point
°C
Rel
Hum
%
Delta-T
°C
Wind Press
QNH
hPa
Press
MSL
hPa
Rain since
9am
mm
Dir  Spd
km/h
Gust
km/h
Spd
kts
Gust
kts
15/03:00pm 29.0 27.4 15.9 45 8.1 N 19 28 10 15 1013.7 1013.4 0.0
15/02:30pm 28.9 26.6 15.8 45 8.1 N 22 32 12 17 1014.0 1013.7 0.0
15/02:00pm 29.4 27.6 15.5 43 8.6 NNW 19 30 10 16 1014.5 1014.2 0.0
15/01:30pm 28.4 26.5 15.3 45 8.0 N 19 28 10 15 1015.0 1014.6 0.0
15/01:00pm 28.1 27.0 16.4 49 7.3 NNW 17 24 9 13 1015.4 1015.1 0.0
15/12:30pm 28.2 27.0 16.1 47 7.5 N 17 26 9 14 1015.8 1015.5 0.0
15/12:00pm 27.7 26.0 16.3 49 7.1 N 20 26 11 14 1016.2 1015.9 0.0
15/11:30am 28.7 27.2 15.2 43 8.3 N 17 26 9 14 1016.5 1016.2 0.0
15/11:00am 28.6 28.6 17.2 50 7.2 N 13 20 7 11 1016.8 1016.5 0.0
15/10:30am 28.0 28.6 16.9 51 6.9 NNE 9 19 5 10 1017.0 1016.6 0.0
15/10:00am 27.3 28.3 16.9 53 6.5 ESE 7 15 4 8 1017.1 1016.8 0.0
15/09:30am 26.3 27.6 17.1 57 5.7 WSW 6 11 3 6 1016.8 1016.5 0.0
15/09:00am 25.1 27.6 17.3 62 4.9 CALM 0 7 0 4 1016.8 1016.5 0.0
15/08:30am 23.7 26.9 18.8 74 3.1 CALM 0 6 0 3 1016.6 1016.3 0.0
15/08:00am 21.6 25.9 21.1 97 0.3 CALM 0 0 0 0 1016.3 1016.0 0.0
15/07:30am 19.4 21.7 19.4 100 0.0 S 6 9 3 5 1015.8 1015.4 0.0
15/07:00am 18.8 21.6 18.8 100 0.0 NE 2 6 1 3 1015.5 1015.2 0.0
15/06:30am 18.6 21.3 18.6 100 0.0 N 2 7 1 4 1015.2 1014.9 0.0
15/06:00am 18.9 22.0 18.6 98 0.2 CALM 0 0 0 0 1015.0 1014.7 0.0
15/05:30am 19.5 22.8 19.0 97 0.3 CALM 0 0 0 0 1014.6 1014.3 0.0
15/05:00am 20.2 22.7 19.0 93 0.8 SSW 4 9 2 5 1014.6 1014.3 0.0
15/04:30am 21.5 23.7 20.3 93 0.8 SSW 9 11 5 6 1014.4 1013.9 0.0
15/04:00am 21.5 24.4 20.7 95 0.5 SSW 6 9 3 5 1014.3 1014.0 0.0
15/03:30am 20.4 23.3 19.1 92 0.8 SSE 2 6 1 3 1014.7 1014.4 0.0
15/03:00am 21.8 23.5 20.1 90 1.1 SW 11 13 6 7 1014.5 1014.2 0.0
15/02:30am 21.9 24.0 20.2 90 1.1 SSW 9 13 5 7 1014.6 1014.3 0.0
15/02:00am 22.0 24.2 20.5 91 1.0 SSW 9 11 5 6 1014.9 1014.6 0.0
15/01:30am 21.4 24.1 20.6 95 0.5 SSW 7 9 4 5 1015.1 1014.7 0.0
15/01:00am 21.6 25.3 19.9 90 1.1 CALM 0 6 0 3 1015.4 1015.1 0.0
15/12:30am 22.6 24.9 20.7 89 1.2 SW 9 11 5 6 1015.4 1015.1 0.0
15/12:00am 22.6 24.8 20.3 87 1.5 SW 9 11 5 6 1015.6 1015.3 0.0
 
Date/Time
CST
Temp
°C
App
Temp
°C
Dew
Point
°C
Rel
Hum
%
Delta-T
°C
Wind Press
QNH
hPa
Press
MSL
hPa
Rain since
9am
mm
Dir  Spd
km/h
Gust
km/h
Spd
kts
Gust
kts
14/11:30pm 22.9 25.0 20.1 84 1.8 SW 9 11 5 6 1015.7 1015.4 0.0
14/11:00pm 23.0 25.6 20.5 86 1.6 SW 7 11 4 6 1015.9 1015.6 0.0
14/10:30pm 22.2 25.6 19.4 84 1.8 CALM 0 0 0 0 1016.1 1015.7 0.0
14/10:00pm 23.1 25.9 19.7 81 2.2 W 4 6 2 3 1016.3 1016.0 0.0
14/09:30pm 23.7 26.2 19.8 79 2.5 W 6 9 3 5 1016.3 1016.0 0.0
14/09:00pm 24.0 26.3 19.9 78 2.6 WNW 7 9 4 5 1015.9 1015.6 0.0
14/08:30pm 24.2 26.4 19.5 75 3.0 N 7 11 4 6 1015.8 1015.5 0.0
14/08:00pm 24.7 26.5 19.5 73 3.3 N 9 15 5 8 1015.8 1015.5 0.0
14/07:30pm 25.0 26.3 19.4 71 3.6 N 11 20 6 11 1015.5 1015.1 0.0
14/07:00pm 25.3 26.1 19.0 68 4.0 N 13 22 7 12 1015.2 1014.9 0.0
14/06:30pm 25.7 25.3 18.9 66 4.4 N 19 26 10 14 1014.9 1014.6 0.0
14/06:00pm 26.3 25.9 18.9 63 4.7 N 19 28 10 15 1014.9 1014.6 0.0
14/05:30pm 26.6 25.7 19.0 63 4.9 NNE 22 33 12 18 1014.7 1014.4 0.0
14/05:00pm 27.6 27.4 19.4 61 5.3 N 19 35 10 19 1014.7 1014.4 0.0
14/04:30pm 27.3 26.3 18.9 60 5.4 N 22 35 12 19 1014.4 1013.9 0.0
14/04:00pm 27.9 27.3 18.9 58 5.8 N 20 30 11 16 1014.5 1014.2 0.0
14/03:30pm 27.4 26.6 18.4 58 5.7 N 20 33 11 18 1014.4 1014.1 0.0
14/03:00pm 28.2 26.0 16.8 50 7.1 N 24 35 13 19 1014.5 1014.2 0.0
14/02:30pm 28.4 25.7 15.7 46 7.8 N 24 41 13 22 1014.7 1014.4 0.0
14/02:00pm 28.4 25.8 16.0 47 7.7 N 24 39 13 21 1014.9 1014.6 0.0
14/01:30pm 29.2 26.8 16.4 46 8.0 N 24 37 13 20 1015.2 1014.8 0.0
14/01:00pm 29.2 26.6 15.0 42 8.7 N 22 33 12 18 1015.9 1015.6 0.0
14/12:30pm 29.5 26.6 12.4 35 10.0 N 19 32 10 17 1016.3 1016.0 0.0
14/12:00pm 29.5 26.2 11.5 33 10.4 ENE 20 28 11 15 1016.7 1016.4 0.0
14/11:30am 29.3 25.9 11.4 33 10.3 ENE 20 32 11 17 1017.0 1016.7 0.0
14/11:00am 28.6 24.7 8.8 29 10.9 ENE 19 32 10 17 1017.4 1017.1 0.0
14/10:30am 28.7 25.1 9.9 31 10.5 E 19 30 10 16 1017.5 1017.1 0.0
14/10:00am 27.6 26.1 13.2 41 8.5 E 13 24 7 13 1017.4 1017.1 0.0
14/09:30am 26.0 25.7 15.4 52 6.4 ESE 11 15 6 8 1017.6 1017.3 0.0
14/09:00am 24.6 25.6 16.3 60 5.1 E 6 9 3 5 1017.4 1017.1 0.0
14/08:30am 23.1 24.1 16.9 68 3.8 E 7 9 4 5 1017.4 1017.1 0.0
14/08:00am 21.7 23.5 18.3 81 2.1 NE 6 9 3 5 1017.2 1016.9 0.0
14/07:30am 17.9 19.2 17.6 98 0.2 N 7 9 4 5 1016.8 1016.4 0.0
14/07:00am 17.3 18.9 16.8 97 0.3 N 4 9 2 5 1016.1 1015.8 0.0
14/06:30am 18.0 19.3 17.2 95 0.5 N 6 7 3 4 1015.7 1015.4 0.0
14/06:00am 18.8 20.0 16.9 89 1.1 NE 6 13 3 7 1015.3 1015.0 0.0
14/05:30am 20.3 20.8 17.5 84 1.7 SSW 11 13 6 7 1014.9 1014.6 0.0
14/05:00am 20.8 20.9 17.4 81 2.1 SW 13 17 7 9 1014.9 1014.6 0.0
14/04:30am 21.3 21.0 17.3 78 2.5 SW 15 19 8 10 1014.8 1014.3 0.0
14/04:00am 21.5 21.3 17.7 79 2.4 SSW 15 20 8 11 1014.9 1014.6 0.0
14/03:30am 21.3 21.7 18.1 82 2.0 SSW 13 17 7 9 1015.0 1014.7 0.0
14/03:00am 21.3 21.5 18.5 84 1.8 SSW 15 19 8 10 1015.2 1014.9 0.0
14/02:30am 21.2 21.7 18.4 84 1.8 SW 13 15 7 8 1015.4 1015.1 0.0
14/02:00am 21.7 22.3 18.7 83 1.9 SSW 13 19 7 10 1015.6 1015.3 0.0
14/01:30am 21.8 22.6 19.0 84 1.8 SSW 13 17 7 9 1015.8 1015.4 0.0
14/01:00am 21.5 23.2 18.5 83 1.9 SW 7 11 4 6 1016.2 1015.9 0.0
14/12:30am 21.7 23.1 18.7 83 1.9 SSW 9 13 5 7 1016.2 1015.9 0.0
14/12:00am 20.4 22.2 18.2 87 1.4 SSW 6 7 3 4 1016.3 1016.0 0.0
 
Date/Time
CST
Temp
°C
App
Temp
°C
Dew
Point
°C
Rel
Hum
%
Delta-T
°C
Wind Press
QNH
hPa
Press
MSL
hPa
Rain since
9am
mm
Dir  Spd
km/h
Gust
km/h
Spd
kts
Gust
kts
13/11:30pm 20.3 22.1 18.2 88 1.3 S 6 7 3 4 1016.4 1016.1 0.0
13/11:00pm 20.4 23.2 18.0 86 1.5 CALM 0 0 0 0 1016.5 1016.2 0.0
13/10:30pm 21.6 24.6 18.4 82 2.0 CALM 0 0 0 0 1016.7 1016.3 0.0
13/10:00pm 21.9 24.4 19.1 84 1.8 NNE 4 9 2 5 1016.5 1016.2 0.0
13/09:30pm 22.2 24.7 18.2 78 2.5 N 2 7 1 4 1016.4 1016.1 0.0
13/09:00pm 23.3 25.0 18.6 75 3.0 NNE 7 11 4 6 1016.3 1016.0 0.0
13/08:30pm 23.7 25.4 18.6 73 3.2 NNE 7 13 4 7 1016.1 1015.8 0.0
13/08:00pm 24.1 25.6 18.1 69 3.8 NNE 7 13 4 7 1015.9 1015.6 0.0
13/07:30pm 24.6 25.2 17.8 66 4.3 NNE 11 17 6 9 1015.5 1015.1 0.0
13/07:00pm 25.0 25.3 18.0 65 4.4 NNE 13 20 7 11 1015.1 1014.8 0.0
13/06:30pm 25.6 25.3 17.3 60 5.2 N 15 22 8 12 1015.0 1014.7 0.0
13/06:00pm 26.1 25.6 17.7 60 5.3 NNE 17 28 9 15 1014.9 1014.6 0.0
13/05:30pm 26.8 25.6 17.0 55 6.1 NNE 19 28 10 15 1014.7 1014.4 0.0
13/05:00pm 27.3 26.2 16.3 51 6.8 N 17 28 9 15 1014.5 1014.2 0.0
13/04:30pm 27.8 26.5 16.7 50 6.9 NNW 19 26 10 14 1014.3 1013.8 0.0
13/04:00pm 28.2 25.6 13.7 41 8.6 N 20 32 11 17 1014.4 1014.1 0.0
13/03:30pm 29.3 25.7 10.4 31 10.7 N 20 35 11 19 1014.6 1014.3 0.0
13/03:00pm 28.3 25.6 13.4 40 8.8 N 20 33 11 18 1015.0 1014.7 0.0
13/02:30pm 28.4 25.1 12.7 38 9.2 N 22 35 12 19 1015.4 1015.1 0.0
13/02:00pm 29.1 24.8 10.7 32 10.5 N 24 43 13 23 1015.9 1015.6 0.0
13/01:30pm 28.9 25.7 11.9 35 9.9 N 20 32 11 17 1016.3 1015.9 0.0
13/01:00pm 29.3 25.7 11.8 34 10.2 NNE 22 33 12 18 1016.8 1016.5 0.0
13/12:30pm 30.2 26.7 10.2 29 11.4 NE 19 33 10 18 1017.1 1016.8 0.0
13/12:00pm 29.2 25.1 8.8 28 11.3 ENE 20 30 11 16 1017.7 1017.4 0.0
13/11:30am 29.1 24.4 5.2 22 12.4 ENE 19 32 10 17 1017.8 1017.5 0.0
13/11:00am 28.7 23.7 1.3 17 13.3 ENE 17 30 9 16 1018.0 1017.7 0.0
13/10:30am 28.3 23.4 1.7 18 12.9 ENE 17 26 9 14 1018.2 1017.8 0.0
13/10:00am 27.6 23.3 5.2 24 11.5 E 17 22 9 12 1018.2 1017.9 0.0
13/09:30am 26.0 24.3 9.8 36 9.0 ENE 9 13 5 7 1018.1 1017.8 0.0
13/09:00am 24.5 23.4 12.1 46 7.1 ESE 9 13 5 7 1018.0 1017.7 0.0
13/08:30am 22.7 22.3 14.0 58 5.1 E 9 11 5 6 1017.7 1017.4 0.0
13/08:00am 20.0 20.0 14.1 69 3.4 NNE 7 11 4 6 1017.4 1017.1 0.0
13/07:30am 18.0 18.3 13.5 75 2.5 NE 4 11 2 6 1017.0 1016.6 0.0
13/07:00am 17.8 17.5 12.7 72 2.8 NNE 6 13 3 7 1016.4 1016.1 0.0
13/06:30am 20.4 19.4 13.4 64 4.0 SSW 11 13 6 7 1015.7 1015.4 0.0
13/06:00am 19.5 19.0 13.7 69 3.3 SW 9 11 5 6 1015.7 1015.4 0.0
13/05:30am 19.8 19.1 14.2 70 3.2 SW 11 15 6 8 1015.7 1015.4 0.0
13/05:00am 20.1 19.1 14.5 70 3.3 SW 13 19 7 10 1015.6 1015.3 0.0
13/04:30am 20.6 18.9 14.7 69 3.5 SW 17 20 9 11 1015.6 1015.2 0.0
13/04:00am 20.8 19.0 14.5 67 3.7 SW 17 19 9 10 1015.7 1015.4 0.0
13/03:30am 20.6 19.6 14.7 69 3.5 SW 13 19 7 10 1016.1 1015.8 0.0
13/03:00am 20.6 20.4 14.7 69 3.5 SW 9 13 5 7 1016.3 1016.0 0.0
13/02:30am 20.7 19.4 13.6 64 4.1 SW 13 19 7 10 1016.4 1016.1 0.0
13/02:00am 20.2 20.0 13.6 66 3.8 SW 7 9 4 5 1016.6 1016.3 0.0
13/01:30am 20.3 20.4 14.4 69 3.4 SSW 7 11 4 6 1016.8 1016.4 0.0
13/01:00am 19.8 19.9 15.4 76 2.6 S 9 11 5 6 1017.0 1016.7 0.0
13/12:30am 19.9 20.3 15.3 75 2.7 S 7 9 4 5 1017.1 1016.8 0.0
13/12:00am 20.5 20.6 15.5 73 3.0 SSW 9 13 5 7 1017.2 1016.9 0.0
 
Date/Time
CST
Temp
°C
App
Temp
°C
Dew
Point
°C
Rel
Hum
%
Delta-T
°C
Wind Press
QNH
hPa
Press
MSL
hPa
Rain since
9am
mm
Dir  Spd
km/h
Gust
km/h
Spd
kts
Gust
kts
12/11:30pm 20.1 19.8 14.5 70 3.3 S 9 11 5 6 1017.2 1016.9 0.0
12/11:00pm 20.9 22.0 15.7 72 3.1 ENE 4 7 2 4 1017.1 1016.8 0.0
12/10:30pm 20.2 20.5 15.0 72 3.1 ENE 7 9 4 5 1016.9 1016.5 0.0
12/10:00pm 21.8 22.2 14.7 64 4.2 NE 6 7 3 4 1016.9 1016.6 0.0
12/09:30pm 23.2 23.4 14.7 58 5.0 NE 7 11 4 6 1016.7 1016.4 0.0
12/09:00pm 23.7 23.9 15.7 61 4.8 NE 9 15 5 8 1016.6 1016.3 0.0
12/08:30pm 24.1 24.0 15.9 60 5.0 NE 11 15 6 8 1016.4 1016.1 0.0
12/08:00pm 24.4 24.2 15.6 58 5.3 NE 11 17 6 9 1016.1 1015.8 0.0
12/07:30pm 25.0 23.6 15.6 56 5.7 NNE 17 24 9 13 1015.7 1015.3 0.0
12/07:00pm 25.5 24.0 14.3 50 6.7 NNE 15 24 8 13 1015.4 1015.1 0.0
12/06:30pm 26.3 23.9 13.8 46 7.4 NNE 19 30 10 16 1015.1 1014.8 0.0
12/06:00pm 27.2 24.9 14.2 44 7.8 NNE 19 26 10 14 1015.0 1014.7 0.0
12/05:30pm 27.5 24.8 13.4 41 8.3 NNE 20 35 11 19 1014.8 1014.5 0.0
12/05:00pm 27.9 25.4 14.2 43 8.2 NNE 20 32 11 17 1014.8 1014.5 0.0

Other formats

Comma delimited format used in spreadsheet applications
http://www.bom.gov.au/fwo/IDD60801/IDD60801.95101.axf

JavaScript Object Notation format (JSON) in row-major order
http://www.bom.gov.au/fwo/IDD60801/IDD60801.95101.json

Data quality

Most of these data are generated automatically and are frequently updated. Quality checks on data are not normally performed. It is possible for incorrect values to appear. Refer to information at About Latest Weather Observations and please check the disclaimer before using these data.